sensor_id;sensor_type;location;lat;lon;timestamp;temperature;humidity
12622;DHT22;6376;48.182;-1.644;2022-11-18T00:00:12;13.70;91.40
12622;DHT22;6376;48.182;-1.644;2022-11-18T00:02:38;13.70;91.40
12622;DHT22;6376;48.182;-1.644;2022-11-18T00:05:03;13.70;91.50
12622;DHT22;6376;48.182;-1.644;2022-11-18T00:07:29;13.70;91.40
12622;DHT22;6376;48.182;-1.644;2022-11-18T00:09:55;13.70;91.30
12622;DHT22;6376;48.182;-1.644;2022-11-18T00:12:21;13.70;91.40
12622;DHT22;6376;48.182;-1.644;2022-11-18T00:15:05;13.70;91.50
12622;DHT22;6376;48.182;-1.644;2022-11-18T00:17:31;13.70;91.50
12622;DHT22;6376;48.182;-1.644;2022-11-18T00:19:57;13.70;91.50
12622;DHT22;6376;48.182;-1.644;2022-11-18T00:22:23;13.70;91.40
12622;DHT22;6376;48.182;-1.644;2022-11-18T00:24:48;13.70;91.50
12622;DHT22;6376;48.182;-1.644;2022-11-18T00:27:14;13.70;91.50
12622;DHT22;6376;48.182;-1.644;2022-11-18T00:29:39;13.60;91.40
12622;DHT22;6376;48.182;-1.644;2022-11-18T00:32:05;13.60;91.50
12622;DHT22;6376;48.182;-1.644;2022-11-18T00:34:31;13.60;91.40
12622;DHT22;6376;48.182;-1.644;2022-11-18T00:36:56;13.60;91.50
12622;DHT22;6376;48.182;-1.644;2022-11-18T00:39:22;13.60;91.30
12622;DHT22;6376;48.182;-1.644;2022-11-18T00:41:48;13.60;91.50
12622;DHT22;6376;48.182;-1.644;2022-11-18T00:44:33;13.60;91.30
12622;DHT22;6376;48.182;-1.644;2022-11-18T00:46:59;13.60;91.30
12622;DHT22;6376;48.182;-1.644;2022-11-18T00:49:24;13.60;91.40
12622;DHT22;6376;48.182;-1.644;2022-11-18T00:51:50;13.60;91.40
12622;DHT22;6376;48.182;-1.644;2022-11-18T00:54:16;13.60;91.40
12622;DHT22;6376;48.182;-1.644;2022-11-18T00:56:41;13.60;91.30
12622;DHT22;6376;48.182;-1.644;2022-11-18T00:59:07;13.60;91.50
12622;DHT22;6376;48.182;-1.644;2022-11-18T01:01:33;13.60;91.50
12622;DHT22;6376;48.182;-1.644;2022-11-18T01:03:59;13.60;91.50
12622;DHT22;6376;48.182;-1.644;2022-11-18T01:06:25;13.60;91.50
12622;DHT22;6376;48.182;-1.644;2022-11-18T01:08:50;13.60;91.50
12622;DHT22;6376;48.182;-1.644;2022-11-18T01:11:16;13.60;91.60
12622;DHT22;6376;48.182;-1.644;2022-11-18T01:14:00;13.60;91.60
12622;DHT22;6376;48.182;-1.644;2022-11-18T01:16:27;13.60;91.50
12622;DHT22;6376;48.182;-1.644;2022-11-18T01:18:54;13.60;91.50
12622;DHT22;6376;48.182;-1.644;2022-11-18T01:21:20;13.50;91.50
12622;DHT22;6376;48.182;-1.644;2022-11-18T01:23:46;13.60;91.60
12622;DHT22;6376;48.182;-1.644;2022-11-18T01:26:13;13.50;91.40
12622;DHT22;6376;48.182;-1.644;2022-11-18T01:28:39;13.50;91.50
12622;DHT22;6376;48.182;-1.644;2022-11-18T01:31:08;13.50;91.80
12622;DHT22;6376;48.182;-1.644;2022-11-18T01:33:34;13.50;91.40
12622;DHT22;6376;48.182;-1.644;2022-11-18T01:36:00;13.50;91.30
12622;DHT22;6376;48.182;-1.644;2022-11-18T01:38:26;13.50;91.30
12622;DHT22;6376;48.182;-1.644;2022-11-18T01:40:55;13.50;91.40
12622;DHT22;6376;48.182;-1.644;2022-11-18T01:43:22;13.50;91.30
12622;DHT22;6376;48.182;-1.644;2022-11-18T01:45:49;13.50;91.20
12622;DHT22;6376;48.182;-1.644;2022-11-18T01:48:32;13.50;91.50
12622;DHT22;6376;48.182;-1.644;2022-11-18T01:51:02;13.50;91.50
12622;DHT22;6376;48.182;-1.644;2022-11-18T01:53:36;13.50;91.40
12622;DHT22;6376;48.182;-1.644;2022-11-18T01:56:11;13.50;91.30
12622;DHT22;6376;48.182;-1.644;2022-11-18T01:58:44;13.50;91.30
12622;DHT22;6376;48.182;-1.644;2022-11-18T02:01:11;13.50;91.30
12622;DHT22;6376;48.182;-1.644;2022-11-18T02:03:37;13.50;91.30
12622;DHT22;6376;48.182;-1.644;2022-11-18T02:06:04;13.40;91.40
12622;DHT22;6376;48.182;-1.644;2022-11-18T02:08:31;13.40;91.20
12622;DHT22;6376;48.182;-1.644;2022-11-18T02:10:57;13.40;91.30
12622;DHT22;6376;48.182;-1.644;2022-11-18T02:13:23;13.40;91.30
12622;DHT22;6376;48.182;-1.644;2022-11-18T02:18:48;13.40;91.30
12622;DHT22;6376;48.182;-1.644;2022-11-18T02:30:03;13.40;91.40
12622;DHT22;6376;48.182;-1.644;2022-11-18T02:32:32;13.40;91.40
12622;DHT22;6376;48.182;-1.644;2022-11-18T02:38:01;13.40;91.50
12622;DHT22;6376;48.182;-1.644;2022-11-18T02:40:32;13.40;91.30
12622;DHT22;6376;48.182;-1.644;2022-11-18T02:43:05;13.40;91.50
12622;DHT22;6376;48.182;-1.644;2022-11-18T02:45:32;13.40;91.30
12622;DHT22;6376;48.182;-1.644;2022-11-18T02:48:04;13.40;91.40
12622;DHT22;6376;48.182;-1.644;2022-11-18T02:50:32;13.40;91.50
12622;DHT22;6376;48.182;-1.644;2022-11-18T02:53:02;13.30;91.40
12622;DHT22;6376;48.182;-1.644;2022-11-18T02:55:30;13.30;91.50
12622;DHT22;6376;48.182;-1.644;2022-11-18T02:57:57;13.30;91.50
12622;DHT22;6376;48.182;-1.644;2022-11-18T03:00:23;13.30;91.40
12622;DHT22;6376;48.182;-1.644;2022-11-18T03:02:49;13.30;91.40
12622;DHT22;6376;48.182;-1.644;2022-11-18T03:08:27;13.30;91.50
12622;DHT22;6376;48.182;-1.644;2022-11-18T03:11:16;13.30;91.50
12622;DHT22;6376;48.182;-1.644;2022-11-18T03:22:15;13.30;91.50
12622;DHT22;6376;48.182;-1.644;2022-11-18T03:24:52;13.30;91.50
12622;DHT22;6376;48.182;-1.644;2022-11-18T03:27:33;13.30;91.50
12622;DHT22;6376;48.182;-1.644;2022-11-18T03:30:06;13.30;91.50
12622;DHT22;6376;48.182;-1.644;2022-11-18T03:32:36;13.30;91.60
12622;DHT22;6376;48.182;-1.644;2022-11-18T03:35:17;13.30;91.50
12622;DHT22;6376;48.182;-1.644;2022-11-18T03:37:44;13.30;91.60
12622;DHT22;6376;48.182;-1.644;2022-11-18T03:40:18;13.30;91.50
12622;DHT22;6376;48.182;-1.644;2022-11-18T03:42:48;13.30;91.60
12622;DHT22;6376;48.182;-1.644;2022-11-18T03:45:24;13.30;91.50
12622;DHT22;6376;48.182;-1.644;2022-11-18T03:48:10;13.30;91.60
12622;DHT22;6376;48.182;-1.644;2022-11-18T03:50:45;13.30;91.60
12622;DHT22;6376;48.182;-1.644;2022-11-18T03:53:13;13.30;91.50
12622;DHT22;6376;48.182;-1.644;2022-11-18T03:55:41;13.30;91.60
12622;DHT22;6376;48.182;-1.644;2022-11-18T03:58:27;13.30;91.60
12622;DHT22;6376;48.182;-1.644;2022-11-18T04:01:00;13.30;91.60
12622;DHT22;6376;48.182;-1.644;2022-11-18T04:03:28;13.30;91.60
12622;DHT22;6376;48.182;-1.644;2022-11-18T04:06:03;13.30;91.60
12622;DHT22;6376;48.182;-1.644;2022-11-18T04:08:37;13.30;91.60
12622;DHT22;6376;48.182;-1.644;2022-11-18T04:11:20;13.20;91.60
12622;DHT22;6376;48.182;-1.644;2022-11-18T04:14:06;13.30;91.60
12622;DHT22;6376;48.182;-1.644;2022-11-18T04:16:43;13.30;91.60
12622;DHT22;6376;48.182;-1.644;2022-11-18T04:19:10;13.20;91.60
12622;DHT22;6376;48.182;-1.644;2022-11-18T04:21:35;13.20;91.60
12622;DHT22;6376;48.182;-1.644;2022-11-18T04:24:01;13.20;91.60
12622;DHT22;6376;48.182;-1.644;2022-11-18T04:26:27;13.20;91.50
12622;DHT22;6376;48.182;-1.644;2022-11-18T04:28:53;13.20;91.50
12622;DHT22;6376;48.182;-1.644;2022-11-18T04:31:18;13.20;91.50
12622;DHT22;6376;48.182;-1.644;2022-11-18T04:33:44;13.20;91.50
12622;DHT22;6376;48.182;-1.644;2022-11-18T04:36:10;13.20;91.60
12622;DHT22;6376;48.182;-1.644;2022-11-18T04:38:35;13.20;91.60
12622;DHT22;6376;48.182;-1.644;2022-11-18T04:41:01;13.20;91.50
12622;DHT22;6376;48.182;-1.644;2022-11-18T04:43:27;13.20;91.60
12622;DHT22;6376;48.182;-1.644;2022-11-18T04:45:52;13.20;91.60
12622;DHT22;6376;48.182;-1.644;2022-11-18T04:48:18;13.20;91.60
12622;DHT22;6376;48.182;-1.644;2022-11-18T04:50:44;13.20;91.60
12622;DHT22;6376;48.182;-1.644;2022-11-18T04:53:09;13.20;91.60
12622;DHT22;6376;48.182;-1.644;2022-11-18T04:55:35;13.20;91.60
12622;DHT22;6376;48.182;-1.644;2022-11-18T04:58:02;13.20;91.60
12622;DHT22;6376;48.182;-1.644;2022-11-18T05:00:27;13.20;91.60
12622;DHT22;6376;48.182;-1.644;2022-11-18T05:02:53;13.20;91.60
12622;DHT22;6376;48.182;-1.644;2022-11-18T05:05:19;13.20;91.60
12622;DHT22;6376;48.182;-1.644;2022-11-18T05:07:44;13.20;91.60
12622;DHT22;6376;48.182;-1.644;2022-11-18T05:10:10;13.20;91.60
12622;DHT22;6376;48.182;-1.644;2022-11-18T05:12:35;13.20;91.70
12622;DHT22;6376;48.182;-1.644;2022-11-18T05:15:14;13.20;91.60
12622;DHT22;6376;48.182;-1.644;2022-11-18T05:17:40;13.20;91.70
12622;DHT22;6376;48.182;-1.644;2022-11-18T05:20:06;13.20;91.70
12622;DHT22;6376;48.182;-1.644;2022-11-18T05:22:32;13.20;91.60
12622;DHT22;6376;48.182;-1.644;2022-11-18T05:24:58;13.20;91.60
12622;DHT22;6376;48.182;-1.644;2022-11-18T05:27:23;13.20;91.60
12622;DHT22;6376;48.182;-1.644;2022-11-18T05:29:50;13.20;91.60
12622;DHT22;6376;48.182;-1.644;2022-11-18T05:32:15;13.20;91.60
12622;DHT22;6376;48.182;-1.644;2022-11-18T05:34:41;13.20;91.60
12622;DHT22;6376;48.182;-1.644;2022-11-18T05:37:07;13.20;91.60
12622;DHT22;6376;48.182;-1.644;2022-11-18T05:39:33;13.10;91.50
12622;DHT22;6376;48.182;-1.644;2022-11-18T05:41:59;13.10;91.50
12622;DHT22;6376;48.182;-1.644;2022-11-18T05:44:43;13.10;91.60
12622;DHT22;6376;48.182;-1.644;2022-11-18T05:47:09;13.10;91.60
12622;DHT22;6376;48.182;-1.644;2022-11-18T05:49:34;13.10;91.60
12622;DHT22;6376;48.182;-1.644;2022-11-18T05:52:00;13.10;91.50
12622;DHT22;6376;48.182;-1.644;2022-11-18T05:54:26;13.10;91.50
12622;DHT22;6376;48.182;-1.644;2022-11-18T05:56:52;13.10;91.50
12622;DHT22;6376;48.182;-1.644;2022-11-18T05:59:18;13.10;91.60
12622;DHT22;6376;48.182;-1.644;2022-11-18T06:01:51;13.10;91.50
12622;DHT22;6376;48.182;-1.644;2022-11-18T06:04:35;13.10;91.60
12622;DHT22;6376;48.182;-1.644;2022-11-18T06:07:14;13.10;91.50
12622;DHT22;6376;48.182;-1.644;2022-11-18T06:09:44;13.10;91.50
12622;DHT22;6376;48.182;-1.644;2022-11-18T06:12:15;13.10;91.50
12622;DHT22;6376;48.182;-1.644;2022-11-18T06:15:00;13.10;91.60
12622;DHT22;6376;48.182;-1.644;2022-11-18T06:17:31;13.10;91.60
12622;DHT22;6376;48.182;-1.644;2022-11-18T06:19:59;13.10;91.50
12622;DHT22;6376;48.182;-1.644;2022-11-18T06:22:25;13.10;91.50
12622;DHT22;6376;48.182;-1.644;2022-11-18T06:24:51;13.10;91.50
12622;DHT22;6376;48.182;-1.644;2022-11-18T06:27:16;13.10;91.50
12622;DHT22;6376;48.182;-1.644;2022-11-18T06:29:42;13.10;91.50
12622;DHT22;6376;48.182;-1.644;2022-11-18T06:32:08;13.10;91.50
12622;DHT22;6376;48.182;-1.644;2022-11-18T06:34:33;13.10;91.50
12622;DHT22;6376;48.182;-1.644;2022-11-18T06:36:59;13.10;91.60
12622;DHT22;6376;48.182;-1.644;2022-11-18T06:39:25;13.10;91.90
12622;DHT22;6376;48.182;-1.644;2022-11-18T06:41:53;13.10;91.60
12622;DHT22;6376;48.182;-1.644;2022-11-18T06:44:19;13.10;91.50
12622;DHT22;6376;48.182;-1.644;2022-11-18T06:46:44;13.10;91.60
12622;DHT22;6376;48.182;-1.644;2022-11-18T06:49:26;13.10;91.60
12622;DHT22;6376;48.182;-1.644;2022-11-18T06:51:52;13.00;91.50
12622;DHT22;6376;48.182;-1.644;2022-11-18T06:54:18;13.00;91.50
12622;DHT22;6376;48.182;-1.644;2022-11-18T06:56:44;13.00;91.50
12622;DHT22;6376;48.182;-1.644;2022-11-18T06:59:10;13.00;91.50
12622;DHT22;6376;48.182;-1.644;2022-11-18T07:01:38;13.10;91.60
12622;DHT22;6376;48.182;-1.644;2022-11-18T07:04:04;13.00;91.50
12622;DHT22;6376;48.182;-1.644;2022-11-18T07:06:32;13.00;91.60
12622;DHT22;6376;48.182;-1.644;2022-11-18T07:08:59;13.00;91.60
12622;DHT22;6376;48.182;-1.644;2022-11-18T07:11:26;13.00;92.00
12622;DHT22;6376;48.182;-1.644;2022-11-18T07:13:52;13.00;91.50
12622;DHT22;6376;48.182;-1.644;2022-11-18T07:16:20;13.00;91.50
12622;DHT22;6376;48.182;-1.644;2022-11-18T07:18:47;13.00;91.60
12622;DHT22;6376;48.182;-1.644;2022-11-18T07:21:16;13.00;91.70
12622;DHT22;6376;48.182;-1.644;2022-11-18T07:23:42;13.00;91.50
12622;DHT22;6376;48.182;-1.644;2022-11-18T07:26:08;13.00;91.60
12622;DHT22;6376;48.182;-1.644;2022-11-18T07:28:34;13.00;91.60
12622;DHT22;6376;48.182;-1.644;2022-11-18T07:31:08;13.00;91.50
12622;DHT22;6376;48.182;-1.644;2022-11-18T07:33:34;13.00;91.60
12622;DHT22;6376;48.182;-1.644;2022-11-18T07:36:14;13.00;91.60
12622;DHT22;6376;48.182;-1.644;2022-11-18T07:38:40;13.00;91.50
12622;DHT22;6376;48.182;-1.644;2022-11-18T07:41:10;13.00;91.50
12622;DHT22;6376;48.182;-1.644;2022-11-18T07:43:37;13.00;91.50
12622;DHT22;6376;48.182;-1.644;2022-11-18T07:46:22;13.00;91.50
12622;DHT22;6376;48.182;-1.644;2022-11-18T07:48:50;13.00;91.50
12622;DHT22;6376;48.182;-1.644;2022-11-18T07:51:18;13.00;91.50
12622;DHT22;6376;48.182;-1.644;2022-11-18T07:53:45;13.00;91.50
12622;DHT22;6376;48.182;-1.644;2022-11-18T07:56:11;13.00;91.50
12622;DHT22;6376;48.182;-1.644;2022-11-18T07:58:37;13.00;91.40
12622;DHT22;6376;48.182;-1.644;2022-11-18T08:03:36;13.00;91.40
12622;DHT22;6376;48.182;-1.644;2022-11-18T08:06:02;13.00;91.40
12622;DHT22;6376;48.182;-1.644;2022-11-18T08:08:28;13.00;91.40
12622;DHT22;6376;48.182;-1.644;2022-11-18T08:10:55;13.00;91.40
12622;DHT22;6376;48.182;-1.644;2022-11-18T08:13:21;13.00;91.40
12622;DHT22;6376;48.182;-1.644;2022-11-18T08:15:47;13.10;91.40
12622;DHT22;6376;48.182;-1.644;2022-11-18T08:18:13;13.10;91.30
12622;DHT22;6376;48.182;-1.644;2022-11-18T08:20:38;13.10;91.30
12622;DHT22;6376;48.182;-1.644;2022-11-18T08:23:04;13.20;91.40
12622;DHT22;6376;48.182;-1.644;2022-11-18T08:25:30;13.10;91.20
12622;DHT22;6376;48.182;-1.644;2022-11-18T08:27:55;13.10;91.20
12622;DHT22;6376;48.182;-1.644;2022-11-18T08:30:21;13.10;91.30
12622;DHT22;6376;48.182;-1.644;2022-11-18T08:32:47;13.20;91.40
12622;DHT22;6376;48.182;-1.644;2022-11-18T08:35:12;13.30;91.20
12622;DHT22;6376;48.182;-1.644;2022-11-18T08:37:38;13.40;90.90
12622;DHT22;6376;48.182;-1.644;2022-11-18T08:40:04;13.50;90.60
12622;DHT22;6376;48.182;-1.644;2022-11-18T08:42:30;13.60;90.50
12622;DHT22;6376;48.182;-1.644;2022-11-18T08:44:57;13.60;90.20
12622;DHT22;6376;48.182;-1.644;2022-11-18T08:47:22;13.70;90.10
12622;DHT22;6376;48.182;-1.644;2022-11-18T08:49:48;13.80;90.00
12622;DHT22;6376;48.182;-1.644;2022-11-18T08:52:14;13.80;90.00
12622;DHT22;6376;48.182;-1.644;2022-11-18T08:54:39;13.70;90.00
12622;DHT22;6376;48.182;-1.644;2022-11-18T08:57:05;13.70;90.00
12622;DHT22;6376;48.182;-1.644;2022-11-18T08:59:30;13.70;90.10
12622;DHT22;6376;48.182;-1.644;2022-11-18T09:01:57;13.70;90.10
12622;DHT22;6376;48.182;-1.644;2022-11-18T09:04:22;13.80;90.00
12622;DHT22;6376;48.182;-1.644;2022-11-18T09:06:48;13.90;89.40
12622;DHT22;6376;48.182;-1.644;2022-11-18T09:09:14;14.00;88.90
12622;DHT22;6376;48.182;-1.644;2022-11-18T09:11:40;14.10;88.50
12622;DHT22;6376;48.182;-1.644;2022-11-18T09:14:06;14.20;88.10
12622;DHT22;6376;48.182;-1.644;2022-11-18T09:16:33;14.30;87.70
12622;DHT22;6376;48.182;-1.644;2022-11-18T09:19:00;14.30;87.30
12622;DHT22;6376;48.182;-1.644;2022-11-18T09:21:26;14.40;87.20
12622;DHT22;6376;48.182;-1.644;2022-11-18T09:23:52;14.50;86.60
12622;DHT22;6376;48.182;-1.644;2022-11-18T09:26:20;14.60;86.30
12622;DHT22;6376;48.182;-1.644;2022-11-18T09:28:47;14.70;85.90
12622;DHT22;6376;48.182;-1.644;2022-11-18T09:31:15;14.70;85.80
12622;DHT22;6376;48.182;-1.644;2022-11-18T09:33:41;14.80;85.50
12622;DHT22;6376;48.182;-1.644;2022-11-18T09:36:16;14.90;85.20
12622;DHT22;6376;48.182;-1.644;2022-11-18T09:38:42;14.90;85.20
12622;DHT22;6376;48.182;-1.644;2022-11-18T09:49:24;15.10;84.40
12622;DHT22;6376;48.182;-1.644;2022-11-18T09:51:51;15.10;84.40
12622;DHT22;6376;48.182;-1.644;2022-11-18T09:54:29;15.10;84.60
12622;DHT22;6376;48.182;-1.644;2022-11-18T09:56:56;15.00;84.50
12622;DHT22;6376;48.182;-1.644;2022-11-18T09:59:24;15.00;84.90
12622;DHT22;6376;48.182;-1.644;2022-11-18T10:01:54;15.00;84.90
12622;DHT22;6376;48.182;-1.644;2022-11-18T10:04:21;15.00;85.50
12622;DHT22;6376;48.182;-1.644;2022-11-18T10:06:48;15.10;84.40
12622;DHT22;6376;48.182;-1.644;2022-11-18T10:09:30;15.20;84.10
12622;DHT22;6376;48.182;-1.644;2022-11-18T10:20:32;15.20;84.10
12622;DHT22;6376;48.182;-1.644;2022-11-18T10:23:20;15.20;84.00
12622;DHT22;6376;48.182;-1.644;2022-11-18T10:25:46;15.20;84.10
12622;DHT22;6376;48.182;-1.644;2022-11-18T10:28:30;15.20;84.10
12622;DHT22;6376;48.182;-1.644;2022-11-18T10:31:12;15.10;84.30
12622;DHT22;6376;48.182;-1.644;2022-11-18T10:33:38;15.10;84.30
12622;DHT22;6376;48.182;-1.644;2022-11-18T10:38:37;15.20;84.30
12622;DHT22;6376;48.182;-1.644;2022-11-18T10:41:10;15.20;84.50
12622;DHT22;6376;48.182;-1.644;2022-11-18T10:46:22;15.10;84.70
12622;DHT22;6376;48.182;-1.644;2022-11-18T10:51:39;15.10;84.80
12622;DHT22;6376;48.182;-1.644;2022-11-18T10:54:17;15.10;84.70
12622;DHT22;6376;48.182;-1.644;2022-11-18T10:59:31;15.10;84.80
12622;DHT22;6376;48.182;-1.644;2022-11-18T11:02:19;15.20;84.60
12622;DHT22;6376;48.182;-1.644;2022-11-18T11:04:49;15.20;84.30
12622;DHT22;6376;48.182;-1.644;2022-11-18T11:07:27;15.30;84.10
12622;DHT22;6376;48.182;-1.644;2022-11-18T11:10:19;15.40;83.80
12622;DHT22;6376;48.182;-1.644;2022-11-18T11:12:52;15.40;83.50
12622;DHT22;6376;48.182;-1.644;2022-11-18T11:18:01;15.30;84.40
12622;DHT22;6376;48.182;-1.644;2022-11-18T11:20:46;15.20;84.70
12622;DHT22;6376;48.182;-1.644;2022-11-18T11:23:13;15.10;85.20
12622;DHT22;6376;48.182;-1.644;2022-11-18T11:25:55;15.10;85.50
12622;DHT22;6376;48.182;-1.644;2022-11-18T11:28:37;14.90;85.60
12622;DHT22;6376;48.182;-1.644;2022-11-18T11:34:04;14.90;86.20
12622;DHT22;6376;48.182;-1.644;2022-11-18T11:40:19;14.80;83.40
12622;DHT22;6376;48.182;-1.644;2022-11-18T12:04:54;14.50;87.30
12622;DHT22;6376;48.182;-1.644;2022-11-18T12:07:25;14.50;87.30
12622;DHT22;6376;48.182;-1.644;2022-11-18T12:18:41;14.50;87.70
12622;DHT22;6376;48.182;-1.644;2022-11-18T12:21:08;14.50;87.70
12622;DHT22;6376;48.182;-1.644;2022-11-18T12:26:43;14.40;88.00
12622;DHT22;6376;48.182;-1.644;2022-11-18T12:31:49;14.40;88.00
12622;DHT22;6376;48.182;-1.644;2022-11-18T12:36:51;14.40;88.10
12622;DHT22;6376;48.182;-1.644;2022-11-18T12:44:34;14.40;88.10
12622;DHT22;6376;48.182;-1.644;2022-11-18T12:47:09;14.40;88.10
12622;DHT22;6376;48.182;-1.644;2022-11-18T12:52:44;14.40;88.20
12622;DHT22;6376;48.182;-1.644;2022-11-18T12:54:48;14.40;88.20
12622;DHT22;6376;48.182;-1.644;2022-11-18T12:57:27;14.30;88.20
12622;DHT22;6376;48.182;-1.644;2022-11-18T12:59:53;14.30;88.20
12622;DHT22;6376;48.182;-1.644;2022-11-18T13:02:29;14.30;88.30
12622;DHT22;6376;48.182;-1.644;2022-11-18T13:05:18;14.30;88.40
12622;DHT22;6376;48.182;-1.644;2022-11-18T13:07:48;14.30;88.50
12622;DHT22;6376;48.182;-1.644;2022-11-18T13:10:42;14.30;88.50
12622;DHT22;6376;48.182;-1.644;2022-11-18T13:13:27;14.30;88.50
12622;DHT22;6376;48.182;-1.644;2022-11-18T13:15:54;14.30;88.50
12622;DHT22;6376;48.182;-1.644;2022-11-18T13:18:51;14.20;88.50
12622;DHT22;6376;48.182;-1.644;2022-11-18T13:21:25;14.30;89.40
12622;DHT22;6376;48.182;-1.644;2022-11-18T13:24:15;14.20;88.60
12622;DHT22;6376;48.182;-1.644;2022-11-18T13:26:43;14.20;88.80
12622;DHT22;6376;48.182;-1.644;2022-11-18T13:34:23;14.20;88.70
12622;DHT22;6376;48.182;-1.644;2022-11-18T13:36:51;14.20;88.70
12622;DHT22;6376;48.182;-1.644;2022-11-18T13:39:25;14.20;88.60
12622;DHT22;6376;48.182;-1.644;2022-11-18T13:41:59;14.20;88.70
12622;DHT22;6376;48.182;-1.644;2022-11-18T13:44:31;14.20;88.80
12622;DHT22;6376;48.182;-1.644;2022-11-18T13:52:39;14.20;88.80
12622;DHT22;6376;48.182;-1.644;2022-11-18T13:55:37;14.20;89.40
12622;DHT22;6376;48.182;-1.644;2022-11-18T14:00:42;14.20;88.50
12622;DHT22;6376;48.182;-1.644;2022-11-18T14:03:46;14.20;88.50
12622;DHT22;6376;48.182;-1.644;2022-11-18T14:06:32;14.20;88.60
12622;DHT22;6376;48.182;-1.644;2022-11-18T14:11:38;14.10;88.70
12622;DHT22;6376;48.182;-1.644;2022-11-18T14:14:05;14.10;88.50
12622;DHT22;6376;48.182;-1.644;2022-11-18T14:16:37;14.10;88.60
12622;DHT22;6376;48.182;-1.644;2022-11-18T14:19:04;14.10;88.60
12622;DHT22;6376;48.182;-1.644;2022-11-18T14:21:35;14.10;88.60
12622;DHT22;6376;48.182;-1.644;2022-11-18T14:24:02;14.10;88.60
12622;DHT22;6376;48.182;-1.644;2022-11-18T14:26:37;14.10;88.50
12622;DHT22;6376;48.182;-1.644;2022-11-18T14:29:17;14.10;88.60
12622;DHT22;6376;48.182;-1.644;2022-11-18T14:32:25;14.10;88.60
12622;DHT22;6376;48.182;-1.644;2022-11-18T14:35:00;14.10;88.60
12622;DHT22;6376;48.182;-1.644;2022-11-18T14:37:26;14.10;88.60
12622;DHT22;6376;48.182;-1.644;2022-11-18T14:39:56;14.10;88.70
12622;DHT22;6376;48.182;-1.644;2022-11-18T14:42:22;14.10;88.80
12622;DHT22;6376;48.182;-1.644;2022-11-18T14:44:48;14.10;88.80
12622;DHT22;6376;48.182;-1.644;2022-11-18T14:47:26;14.10;88.80
12622;DHT22;6376;48.182;-1.644;2022-11-18T14:49:52;14.10;88.60
12622;DHT22;6376;48.182;-1.644;2022-11-18T14:52:18;14.10;88.70
12622;DHT22;6376;48.182;-1.644;2022-11-18T14:54:43;14.10;88.70
12622;DHT22;6376;48.182;-1.644;2022-11-18T14:57:14;14.10;88.80
12622;DHT22;6376;48.182;-1.644;2022-11-18T14:59:40;14.10;88.80
12622;DHT22;6376;48.182;-1.644;2022-11-18T15:02:15;14.10;88.80
12622;DHT22;6376;48.182;-1.644;2022-11-18T15:04:41;14.10;88.80
12622;DHT22;6376;48.182;-1.644;2022-11-18T15:07:12;14.10;88.80
12622;DHT22;6376;48.182;-1.644;2022-11-18T15:09:39;14.00;88.70
12622;DHT22;6376;48.182;-1.644;2022-11-18T15:12:05;14.00;88.80
12622;DHT22;6376;48.182;-1.644;2022-11-18T15:14:31;14.00;88.90
12622;DHT22;6376;48.182;-1.644;2022-11-18T15:16:57;14.00;88.90
12622;DHT22;6376;48.182;-1.644;2022-11-18T15:19:22;14.00;88.80
12622;DHT22;6376;48.182;-1.644;2022-11-18T15:21:48;14.00;88.80
12622;DHT22;6376;48.182;-1.644;2022-11-18T15:24:13;14.00;88.80
12622;DHT22;6376;48.182;-1.644;2022-11-18T15:26:42;14.00;88.90
12622;DHT22;6376;48.182;-1.644;2022-11-18T15:29:23;14.00;88.80
12622;DHT22;6376;48.182;-1.644;2022-11-18T15:31:49;14.00;88.80
12622;DHT22;6376;48.182;-1.644;2022-11-18T15:34:15;13.90;88.80
12622;DHT22;6376;48.182;-1.644;2022-11-18T15:36:42;13.90;88.70
12622;DHT22;6376;48.182;-1.644;2022-11-18T15:39:08;13.90;88.80
12622;DHT22;6376;48.182;-1.644;2022-11-18T15:41:35;13.90;88.70
12622;DHT22;6376;48.182;-1.644;2022-11-18T15:44:03;13.90;88.80
12622;DHT22;6376;48.182;-1.644;2022-11-18T15:46:28;13.90;88.80
12622;DHT22;6376;48.182;-1.644;2022-11-18T15:48:56;13.90;88.80
12622;DHT22;6376;48.182;-1.644;2022-11-18T15:51:23;13.90;88.70
12622;DHT22;6376;48.182;-1.644;2022-11-18T15:53:49;13.90;88.70
12622;DHT22;6376;48.182;-1.644;2022-11-18T15:58:44;13.80;88.60
12622;DHT22;6376;48.182;-1.644;2022-11-18T16:01:10;13.80;88.50
12622;DHT22;6376;48.182;-1.644;2022-11-18T16:03:36;13.80;88.40
12622;DHT22;6376;48.182;-1.644;2022-11-18T16:06:02;13.90;88.30
12622;DHT22;6376;48.182;-1.644;2022-11-18T16:08:29;13.90;88.20
12622;DHT22;6376;48.182;-1.644;2022-11-18T16:10:55;13.90;88.00
12622;DHT22;6376;48.182;-1.644;2022-11-18T16:13:40;13.90;88.00
12622;DHT22;6376;48.182;-1.644;2022-11-18T16:16:05;13.80;87.50
12622;DHT22;6376;48.182;-1.644;2022-11-18T16:18:31;13.80;87.50
12622;DHT22;6376;48.182;-1.644;2022-11-18T16:20:58;13.80;87.60
12622;DHT22;6376;48.182;-1.644;2022-11-18T16:23:24;13.80;87.40
12622;DHT22;6376;48.182;-1.644;2022-11-18T16:25:49;13.80;87.50
12622;DHT22;6376;48.182;-1.644;2022-11-18T16:28:15;13.80;87.50
12622;DHT22;6376;48.182;-1.644;2022-11-18T16:30:49;13.80;87.40
12622;DHT22;6376;48.182;-1.644;2022-11-18T16:33:33;13.70;87.40
12622;DHT22;6376;48.182;-1.644;2022-11-18T16:35:59;13.70;87.50
12622;DHT22;6376;48.182;-1.644;2022-11-18T16:38:25;13.70;87.50
12622;DHT22;6376;48.182;-1.644;2022-11-18T16:40:54;13.70;87.80
12622;DHT22;6376;48.182;-1.644;2022-11-18T16:43:20;13.70;87.80
12622;DHT22;6376;48.182;-1.644;2022-11-18T16:45:53;13.70;87.70
12622;DHT22;6376;48.182;-1.644;2022-11-18T16:48:19;13.70;87.70
12622;DHT22;6376;48.182;-1.644;2022-11-18T16:50:58;13.70;87.80
12622;DHT22;6376;48.182;-1.644;2022-11-18T16:53:30;13.70;87.60
12622;DHT22;6376;48.182;-1.644;2022-11-18T16:56:01;13.70;87.80
12622;DHT22;6376;48.182;-1.644;2022-11-18T16:58:27;13.70;88.00
12622;DHT22;6376;48.182;-1.644;2022-11-18T17:00:53;13.60;87.80
12622;DHT22;6376;48.182;-1.644;2022-11-18T17:03:19;13.60;87.80
12622;DHT22;6376;48.182;-1.644;2022-11-18T17:05:44;13.60;87.60
12622;DHT22;6376;48.182;-1.644;2022-11-18T17:08:10;13.60;87.70
12622;DHT22;6376;48.182;-1.644;2022-11-18T17:10:35;13.60;87.80
12622;DHT22;6376;48.182;-1.644;2022-11-18T17:13:01;13.60;87.80
12622;DHT22;6376;48.182;-1.644;2022-11-18T17:15:26;13.60;87.60
12622;DHT22;6376;48.182;-1.644;2022-11-18T17:17:54;13.60;87.80
12622;DHT22;6376;48.182;-1.644;2022-11-18T17:20:20;13.60;87.90
12622;DHT22;6376;48.182;-1.644;2022-11-18T17:22:45;13.60;88.00
12622;DHT22;6376;48.182;-1.644;2022-11-18T17:25:11;13.50;87.80
12622;DHT22;6376;48.182;-1.644;2022-11-18T17:27:36;13.60;88.00
12622;DHT22;6376;48.182;-1.644;2022-11-18T17:30:02;13.50;88.00
12622;DHT22;6376;48.182;-1.644;2022-11-18T17:32:29;13.50;88.00
12622;DHT22;6376;48.182;-1.644;2022-11-18T17:34:55;13.50;88.10
12622;DHT22;6376;48.182;-1.644;2022-11-18T17:37:20;13.50;88.20
12622;DHT22;6376;48.182;-1.644;2022-11-18T17:39:46;13.50;88.10
12622;DHT22;6376;48.182;-1.644;2022-11-18T17:42:12;13.50;88.10
12622;DHT22;6376;48.182;-1.644;2022-11-18T17:44:42;13.50;87.90
12622;DHT22;6376;48.182;-1.644;2022-11-18T17:47:08;13.50;87.90
12622;DHT22;6376;48.182;-1.644;2022-11-18T17:49:34;13.50;88.00
12622;DHT22;6376;48.182;-1.644;2022-11-18T17:52:00;13.50;88.10
12622;DHT22;6376;48.182;-1.644;2022-11-18T17:54:25;13.50;88.30